Time;durP1;ratioP1;P1;durP2;ratioP2;P2;SDS_P1;SDS_P2;PMS_P1;PMS_P2;Temp;Humidity;BMP_temperature;BMP_pressure;BME280_temperature;BME280_humidity;BME280_pressure;Samples;Min_cycle;Max_cycle;Signal;HPM_P1;HPM_P2
2021/09/17 00:00:32;;;;;;;3.97;3.50;;;;;;;;;;5033181;28;21004;-58
2021/09/17 00:03:00;;;;;;;5.83;4.20;;;;;;;;;;5033558;28;20491;-60
2021/09/17 00:05:29;;;;;;;4.67;4.20;;;;;;;;;;5033127;28;20885;-59
2021/09/17 00:07:56;;;;;;;7.47;4.50;;;;;;;;;;5033081;28;20513;-59
2021/09/17 00:10:24;;;;;;;7.87;4.63;;;;;;;;;;5033599;28;20450;-59
2021/09/17 00:12:52;;;;;;;5.40;4.70;;;;;;;;;;5032940;28;20482;-59
2021/09/17 00:15:19;;;;;;;4.90;4.50;;;;;;;;;;5033213;28;20514;-59
2021/09/17 00:17:47;;;;;;;7.83;5.13;;;;;;;;;;5032915;28;20929;-59
2021/09/17 00:20:15;;;;;;;5.57;4.53;;;;;;;;;;5032911;28;20452;-59
2021/09/17 00:22:45;;;;;;;7.07;5.80;;;;;;;;;;5033242;28;20452;-59
2021/09/17 00:25:13;;;;;;;7.80;5.63;;;;;;;;;;5036770;28;20483;-59
2021/09/17 00:27:40;;;;;;;8.77;5.83;;;;;;;;;;5036907;28;20988;-59
2021/09/17 00:30:08;;;;;;;6.70;5.60;;;;;;;;;;5037211;28;20442;-59
2021/09/17 00:32:35;;;;;;;7.37;5.43;;;;;;;;;;5036787;28;20455;-59
2021/09/17 00:35:02;;;;;;;9.97;5.77;;;;;;;;;;5036709;28;20973;-59
2021/09/17 00:37:29;;;;;;;6.73;6.10;;;;;;;;;;5036681;28;20935;-59
2021/09/17 00:39:58;;;;;;;7.27;6.43;;;;;;;;;;5037446;28;20452;-59
2021/09/17 00:42:25;;;;;;;8.10;6.47;;;;;;;;;;5036906;28;20446;-59
2021/09/17 00:44:52;;;;;;;8.83;6.73;;;;;;;;;;5036495;28;20976;-59
2021/09/17 00:47:20;;;;;;;8.87;6.87;;;;;;;;;;5036825;28;20451;-59
2021/09/17 00:49:47;;;;;;;7.77;6.43;;;;;;;;;;5036838;28;20519;-58
2021/09/17 00:52:14;;;;;;;10.50;5.97;;;;;;;;;;5036663;28;20446;-58
2021/09/17 00:54:42;;;;;;;8.37;6.57;;;;;;;;;;5036200;28;20490;-58
2021/09/17 00:57:11;;;;;;;11.17;6.73;;;;;;;;;;5036681;28;20512;-58
2021/09/17 00:59:38;;;;;;;9.67;6.73;;;;;;;;;;5036308;28;20451;-58
2021/09/17 01:02:05;;;;;;;7.33;6.57;;;;;;;;;;5036527;28;20446;-58
2021/09/17 01:04:33;;;;;;;12.60;7.83;;;;;;;;;;5037279;28;20886;-58
2021/09/17 01:07:00;;;;;;;8.47;6.90;;;;;;;;;;5036451;28;20450;-59
2021/09/17 01:09:28;;;;;;;9.87;7.50;;;;;;;;;;5036485;28;20877;-58
2021/09/17 01:12:02;;;;;;;7.93;7.00;;;;;;;;;;5036169;28;20519;-58
2021/09/17 01:14:32;;;;;;;10.03;7.80;;;;;;;;;;5035972;28;20489;-58
2021/09/17 01:16:59;;;;;;;9.27;7.13;;;;;;;;;;5036111;28;20514;-58
2021/09/17 01:19:27;;;;;;;9.83;7.80;;;;;;;;;;5035991;28;20513;-58
2021/09/17 01:21:59;;;;;;;7.90;7.10;;;;;;;;;;5036535;28;20497;-58
2021/09/17 01:24:26;;;;;;;8.87;6.50;;;;;;;;;;5036285;28;20507;-59
2021/09/17 01:26:54;;;;;;;8.40;7.33;;;;;;;;;;5036244;28;20511;-59
2021/09/17 01:29:21;;;;;;;9.03;6.90;;;;;;;;;;5036135;28;20528;-59
2021/09/17 01:31:49;;;;;;;8.00;7.20;;;;;;;;;;5035718;28;20447;-59
2021/09/17 01:34:18;;;;;;;8.73;7.83;;;;;;;;;;5035786;28;20481;-59
2021/09/17 01:36:46;;;;;;;7.93;6.77;;;;;;;;;;5035268;28;20815;-59
2021/09/17 01:39:14;;;;;;;8.27;7.20;;;;;;;;;;5035872;28;20442;-59
2021/09/17 01:41:42;;;;;;;7.57;6.87;;;;;;;;;;5035514;28;20472;-59
2021/09/17 01:44:09;;;;;;;9.03;7.40;;;;;;;;;;5035400;28;20985;-59
2021/09/17 01:46:36;;;;;;;10.87;7.27;;;;;;;;;;5035480;28;20449;-59
2021/09/17 01:49:04;;;;;;;9.53;7.37;;;;;;;;;;5035689;28;20467;-59
2021/09/17 01:51:31;;;;;;;9.37;7.10;;;;;;;;;;5036079;28;20448;-59
2021/09/17 01:53:59;;;;;;;9.47;7.63;;;;;;;;;;5035202;28;21001;-59
2021/09/17 01:56:27;;;;;;;10.70;6.93;;;;;;;;;;5035447;28;20433;-59
2021/09/17 01:58:54;;;;;;;9.20;7.93;;;;;;;;;;5035292;28;20995;-59
2021/09/17 02:01:22;;;;;;;10.67;7.17;;;;;;;;;;5035536;28;20484;-59
2021/09/17 02:03:49;;;;;;;9.20;8.10;;;;;;;;;;5035149;28;21225;-59
2021/09/17 02:06:19;;;;;;;11.63;8.57;;;;;;;;;;5035140;28;20448;-59
2021/09/17 02:08:47;;;;;;;8.50;7.40;;;;;;;;;;5035041;28;21028;-59
2021/09/17 02:11:14;;;;;;;9.13;8.20;;;;;;;;;;5035084;28;20446;-59
2021/09/17 02:13:43;;;;;;;9.60;7.93;;;;;;;;;;5034802;28;21001;-59
2021/09/17 02:16:10;;;;;;;10.40;8.00;;;;;;;;;;5035299;28;20457;-59
2021/09/17 02:18:38;;;;;;;11.43;9.10;;;;;;;;;;5035717;28;20490;-59
2021/09/17 02:21:05;;;;;;;11.30;8.13;;;;;;;;;;5034873;28;20447;-59
2021/09/17 02:23:32;;;;;;;10.50;9.40;;;;;;;;;;5034941;28;20496;-59
2021/09/17 02:25:59;;;;;;;11.77;8.93;;;;;;;;;;5035040;28;20501;-59
2021/09/17 02:28:26;;;;;;;10.33;8.90;;;;;;;;;;5034751;28;20454;-59
2021/09/17 02:30:55;;;;;;;14.60;8.77;;;;;;;;;;5034958;28;20568;-59
2021/09/17 02:33:22;;;;;;;11.07;8.97;;;;;;;;;;5034722;28;20448;-60
2021/09/17 02:35:49;;;;;;;9.63;8.60;;;;;;;;;;5034893;28;20446;-59
2021/09/17 02:38:18;;;;;;;10.27;8.50;;;;;;;;;;5034494;28;20477;-59
2021/09/17 02:40:45;;;;;;;10.97;9.87;;;;;;;;;;5034510;28;20450;-59
2021/09/17 02:43:13;;;;;;;10.43;8.80;;;;;;;;;;5034405;28;20446;-59
2021/09/17 02:45:40;;;;;;;9.10;8.20;;;;;;;;;;5034398;28;20489;-59
2021/09/17 02:48:08;;;;;;;12.73;9.40;;;;;;;;;;5033711;28;20505;-58
2021/09/17 02:50:36;;;;;;;15.47;10.30;;;;;;;;;;5034284;28;20447;-59
2021/09/17 02:53:04;;;;;;;10.00;8.70;;;;;;;;;;5034239;28;21000;-59
2021/09/17 02:55:31;;;;;;;10.60;9.50;;;;;;;;;;5034575;28;20485;-59
2021/09/17 02:57:59;;;;;;;11.47;8.87;;;;;;;;;;5034407;28;20496;-59
2021/09/17 03:00:26;;;;;;;10.80;9.70;;;;;;;;;;5034440;28;20500;-59
2021/09/17 03:02:53;;;;;;;12.73;8.33;;;;;;;;;;5034456;28;20503;-59
2021/09/17 03:05:22;;;;;;;13.17;10.20;;;;;;;;;;5034212;28;20838;-59
2021/09/17 03:07:49;;;;;;;13.90;8.67;;;;;;;;;;5034248;28;20440;-58
2021/09/17 03:10:16;;;;;;;13.67;11.03;;;;;;;;;;5034127;28;20453;-58
2021/09/17 03:12:43;;;;;;;14.17;10.80;;;;;;;;;;5034025;28;20450;-58
2021/09/17 03:15:11;;;;;;;11.00;9.90;;;;;;;;;;5033712;28;20478;-59
2021/09/17 03:17:38;;;;;;;10.43;9.33;;;;;;;;;;5033960;28;20454;-59
2021/09/17 03:20:06;;;;;;;11.87;10.43;;;;;;;;;;5033839;28;20447;-59
2021/09/17 03:22:34;;;;;;;13.63;9.93;;;;;;;;;;5033858;28;20876;-59
2021/09/17 03:25:02;;;;;;;12.10;10.77;;;;;;;;;;5034100;28;20540;-59
2021/09/17 03:27:29;;;;;;;12.33;11.03;;;;;;;;;;5033729;28;20481;-59
2021/09/17 03:29:56;;;;;;;12.60;11.30;;;;;;;;;;5034156;28;20451;-59
2021/09/17 03:32:23;;;;;;;16.30;12.40;;;;;;;;;;5034023;28;20500;-59
2021/09/17 03:34:50;;;;;;;12.90;11.50;;;;;;;;;;5033956;28;20577;-60
2021/09/17 03:37:18;;;;;;;17.67;11.20;;;;;;;;;;5033673;28;20504;-59
2021/09/17 03:39:46;;;;;;;15.57;11.73;;;;;;;;;;5033606;28;20495;-58
2021/09/17 03:42:14;;;;;;;15.30;11.83;;;;;;;;;;5033351;28;20496;-59
2021/09/17 03:44:41;;;;;;;15.80;10.93;;;;;;;;;;5033658;28;20460;-59
2021/09/17 03:47:08;;;;;;;14.60;12.27;;;;;;;;;;5033703;28;20453;-58
2021/09/17 03:49:35;;;;;;;13.33;11.23;;;;;;;;;;5033610;28;20446;-59
2021/09/17 03:52:03;;;;;;;14.33;12.27;;;;;;;;;;5033495;28;20504;-58
2021/09/17 03:54:30;;;;;;;12.40;11.10;;;;;;;;;;5033004;28;20491;-58
2021/09/17 03:57:00;;;;;;;13.63;11.83;;;;;;;;;;5033586;28;20448;-58
2021/09/17 03:59:27;;;;;;;17.80;11.70;;;;;;;;;;5033580;28;20452;-59
2021/09/17 04:01:54;;;;;;;17.97;11.00;;;;;;;;;;5033225;28;20811;-58
2021/09/17 04:04:21;;;;;;;15.33;13.73;;;;;;;;;;5033924;28;20454;-58
2021/09/17 04:08:35;;;;;;;15.40;12.60;;;;;;;;;;5092188;27;20590;-60
2021/09/17 04:11:02;;;;;;;14.50;13.00;;;;;;;;;;5091109;28;20932;-60
2021/09/17 04:13:29;;;;;;;19.17;12.60;;;;;;;;;;5091050;28;20456;-59
2021/09/17 04:15:57;;;;;;;18.73;13.47;;;;;;;;;;5091121;28;20854;-60
2021/09/17 04:18:24;;;;;;;15.47;12.73;;;;;;;;;;5091160;28;20432;-60
2021/09/17 04:20:51;;;;;;;15.07;13.47;;;;;;;;;;5091172;28;20527;-60
2021/09/17 04:23:18;;;;;;;16.73;13.27;;;;;;;;;;5090871;28;20444;-60
2021/09/17 04:25:47;;;;;;;15.30;12.87;;;;;;;;;;5090927;28;20513;-60
2021/09/17 04:28:14;;;;;;;14.47;13.00;;;;;;;;;;5090490;28;20548;-60
2021/09/17 04:30:42;;;;;;;14.80;13.20;;;;;;;;;;5090181;28;20447;-59
2021/09/17 04:33:14;;;;;;;17.60;12.23;;;;;;;;;;5090179;28;20853;-60
2021/09/17 04:35:42;;;;;;;14.57;12.80;;;;;;;;;;5090072;28;20433;-58
2021/09/17 04:38:09;;;;;;;16.57;14.23;;;;;;;;;;5090030;28;20446;-58
2021/09/17 04:40:36;;;;;;;15.90;14.20;;;;;;;;;;5094604;28;20444;-60
2021/09/17 04:43:05;;;;;;;16.17;14.47;;;;;;;;;;5091603;28;20442;-58
2021/09/17 04:45:32;;;;;;;17.13;14.03;;;;;;;;;;5090256;28;20516;-60
2021/09/17 04:47:59;;;;;;;16.53;14.90;;;;;;;;;;5090110;28;20478;-60
2021/09/17 04:50:27;;;;;;;17.23;15.43;;;;;;;;;;5089879;28;20445;-60
2021/09/17 04:52:54;;;;;;;16.73;15.03;;;;;;;;;;5090098;28;20449;-60
2021/09/17 04:55:21;;;;;;;17.60;14.73;;;;;;;;;;5095194;22;20545;-65
2021/09/17 04:57:48;;;;;;;19.10;16.90;;;;;;;;;;5049909;28;20810;-65
2021/09/17 05:00:17;;;;;;;16.57;14.80;;;;;;;;;;5049492;28;20469;-64
2021/09/17 05:02:45;;;;;;;19.27;15.33;;;;;;;;;;5049750;28;20944;-64
2021/09/17 05:05:12;;;;;;;20.63;16.30;;;;;;;;;;5049777;28;20543;-65
2021/09/17 05:07:39;;;;;;;17.93;14.90;;;;;;;;;;5050087;28;20528;-65
2021/09/17 05:10:07;;;;;;;19.03;16.03;;;;;;;;;;5050200;28;20477;-65
2021/09/17 05:12:34;;;;;;;18.77;14.97;;;;;;;;;;5050631;28;20508;-65
2021/09/17 05:15:01;;;;;;;19.57;15.47;;;;;;;;;;5050374;28;20468;-65
2021/09/17 05:17:30;;;;;;;18.73;13.87;;;;;;;;;;5051889;28;20440;-64
2021/09/17 05:19:57;;;;;;;17.77;15.93;;;;;;;;;;5036755;28;20858;-65
2021/09/17 05:22:25;;;;;;;17.40;14.73;;;;;;;;;;5037107;28;20865;-65
2021/09/17 05:24:52;;;;;;;16.73;14.40;;;;;;;;;;5037109;28;21006;-65
2021/09/17 05:27:20;;;;;;;17.10;14.87;;;;;;;;;;5037222;28;20474;-65
2021/09/17 05:29:47;;;;;;;18.23;14.40;;;;;;;;;;5040610;28;20448;-65
2021/09/17 05:32:14;;;;;;;17.43;15.73;;;;;;;;;;5040420;28;20484;-64
2021/09/17 05:34:43;;;;;;;19.70;14.57;;;;;;;;;;5039584;28;20987;-65
2021/09/17 05:37:10;;;;;;;19.27;15.40;;;;;;;;;;5040097;28;20447;-65
2021/09/17 05:39:37;;;;;;;16.50;13.90;;;;;;;;;;5043198;28;20445;-65
2021/09/17 05:42:05;;;;;;;15.33;13.83;;;;;;;;;;5038798;28;20494;-65
2021/09/17 05:44:32;;;;;;;16.40;14.60;;;;;;;;;;5036787;28;20497;-65
2021/09/17 05:46:59;;;;;;;15.77;14.17;;;;;;;;;;5036585;28;21057;-66
2021/09/17 05:49:26;;;;;;;15.27;13.13;;;;;;;;;;5036171;28;20507;-65
2021/09/17 05:51:55;;;;;;;17.03;14.50;;;;;;;;;;5036036;28;20534;-64
2021/09/17 05:54:23;;;;;;;16.80;14.07;;;;;;;;;;5035603;28;20476;-65
2021/09/17 05:56:50;;;;;;;18.93;14.27;;;;;;;;;;5035472;28;20527;-65
2021/09/17 05:59:17;;;;;;;15.43;12.97;;;;;;;;;;5035456;28;20495;-66
2021/09/17 06:01:44;;;;;;;14.17;12.70;;;;;;;;;;5034924;28;20448;-63
2021/09/17 06:04:11;;;;;;;17.00;14.40;;;;;;;;;;5035186;28;20447;-65
2021/09/17 06:06:39;;;;;;;15.07;13.57;;;;;;;;;;5034957;28;20882;-65
2021/09/17 06:09:07;;;;;;;15.07;13.17;;;;;;;;;;5034868;28;20594;-65
2021/09/17 06:11:34;;;;;;;17.80;13.60;;;;;;;;;;5035591;28;20452;-65
2021/09/17 06:14:02;;;;;;;19.83;12.93;;;;;;;;;;5034662;28;20462;-65
2021/09/17 06:16:29;;;;;;;16.73;14.47;;;;;;;;;;5034764;28;20465;-64
2021/09/17 06:19:02;;;;;;;17.23;13.93;;;;;;;;;;5034702;28;20460;-65
2021/09/17 06:21:29;;;;;;;17.23;15.43;;;;;;;;;;5034921;28;20443;-65
2021/09/17 06:23:56;;;;;;;17.87;15.93;;;;;;;;;;5034639;28;20450;-65
2021/09/17 06:26:30;;;;;;;16.03;14.43;;;;;;;;;;5034585;28;20544;-65
2021/09/17 06:28:58;;;;;;;17.77;14.20;;;;;;;;;;5034829;28;20810;-65
2021/09/17 06:31:25;;;;;;;17.57;13.80;;;;;;;;;;5033439;28;20480;-66
2021/09/17 06:33:52;;;;;;;20.37;13.73;;;;;;;;;;5034489;28;20453;-65
2021/09/17 06:36:20;;;;;;;21.40;14.60;;;;;;;;;;5034328;28;20472;-65
2021/09/17 06:38:47;;;;;;;15.90;13.40;;;;;;;;;;5034982;28;20440;-64
2021/09/17 06:41:14;;;;;;;22.43;13.80;;;;;;;;;;5034471;28;20452;-64
2021/09/17 06:43:43;;;;;;;17.70;14.20;;;;;;;;;;5033837;28;20998;-65
2021/09/17 06:46:10;;;;;;;15.73;13.93;;;;;;;;;;5034297;28;20475;-65
2021/09/17 06:48:38;;;;;;;18.33;14.07;;;;;;;;;;5034315;28;20877;-63
2021/09/17 06:51:05;;;;;;;16.17;14.00;;;;;;;;;;5034009;28;20446;-64
2021/09/17 06:53:32;;;;;;;16.57;13.90;;;;;;;;;;5034000;28;20451;-63
2021/09/17 06:55:59;;;;;;;16.10;12.93;;;;;;;;;;5033528;28;20475;-64
2021/09/17 06:58:31;;;;;;;16.93;14.30;;;;;;;;;;5034053;28;20862;-65
2021/09/17 07:01:00;;;;;;;14.73;12.67;;;;;;;;;;5034034;28;20444;-65
2021/09/17 07:03:27;;;;;;;17.70;13.17;;;;;;;;;;5033712;28;20902;-65
2021/09/17 07:05:55;;;;;;;15.70;13.10;;;;;;;;;;5033888;28;20468;-65
2021/09/17 07:08:22;;;;;;;20.40;13.53;;;;;;;;;;5034457;28;20489;-67
2021/09/17 07:10:50;;;;;;;16.50;12.70;;;;;;;;;;5033884;28;20866;-66
2021/09/17 07:13:17;;;;;;;13.97;12.57;;;;;;;;;;5033910;28;20452;-66
2021/09/17 07:15:44;;;;;;;14.30;12.10;;;;;;;;;;5033716;28;20515;-64
2021/09/17 07:18:13;;;;;;;13.07;10.87;;;;;;;;;;5033743;28;20448;-64
2021/09/17 07:20:41;;;;;;;16.77;12.50;;;;;;;;;;5033770;28;20513;-65
2021/09/17 07:23:10;;;;;;;14.63;11.80;;;;;;;;;;5033538;28;20449;-66
2021/09/17 07:25:37;;;;;;;12.13;11.00;;;;;;;;;;5033429;28;20483;-65
2021/09/17 07:28:05;;;;;;;14.87;10.07;;;;;;;;;;5033523;28;20484;-64
2021/09/17 07:30:32;;;;;;;9.77;8.77;;;;;;;;;;5033251;28;20445;-64
2021/09/17 07:33:02;;;;;;;10.70;9.27;;;;;;;;;;5033369;28;20530;-64
2021/09/17 07:35:30;;;;;;;10.80;9.67;;;;;;;;;;5033180;28;20480;-66
2021/09/17 07:37:59;;;;;;;11.07;9.27;;;;;;;;;;5033497;28;20437;-65
2021/09/17 07:40:27;;;;;;;13.57;9.10;;;;;;;;;;5033276;28;20499;-65
2021/09/17 07:42:54;;;;;;;13.37;9.40;;;;;;;;;;5033020;28;20498;-63
2021/09/17 07:45:23;;;;;;;9.03;8.10;;;;;;;;;;5033527;28;20526;-66
2021/09/17 07:47:51;;;;;;;10.07;8.27;;;;;;;;;;5033563;28;20803;-66
2021/09/17 07:50:19;;;;;;;21.20;8.13;;;;;;;;;;5033330;28;20543;-66
2021/09/17 07:52:48;;;;;;;9.00;8.00;;;;;;;;;;5033114;28;20445;-67
2021/09/17 07:55:15;;;;;;;11.30;8.90;;;;;;;;;;5032798;28;20485;-66
2021/09/17 07:57:42;;;;;;;13.93;7.13;;;;;;;;;;5032875;28;20474;-65
2021/09/17 08:00:11;;;;;;;9.07;6.00;;;;;;;;;;5032819;28;20445;-63
2021/09/17 08:02:38;;;;;;;7.03;6.30;;;;;;;;;;5032867;28;20460;-66
2021/09/17 08:05:06;;;;;;;5.33;4.83;;;;;;;;;;5033024;28;20526;-66
2021/09/17 08:07:33;;;;;;;8.00;5.70;;;;;;;;;;5032635;28;20453;-67
2021/09/17 08:10:02;;;;;;;4.17;3.63;;;;;;;;;;5033044;28;20498;-65
2021/09/17 08:12:29;;;;;;;3.27;2.97;;;;;;;;;;5033011;28;20499;-65
2021/09/17 08:14:56;;;;;;;5.80;3.10;;;;;;;;;;5032517;28;20992;-66
2021/09/17 08:17:24;;;;;;;5.17;1.60;;;;;;;;;;5032792;28;20451;-66
2021/09/17 08:19:51;;;;;;;3.73;1.77;;;;;;;;;;5034176;28;20512;-66
2021/09/17 08:22:18;;;;;;;3.33;1.53;;;;;;;;;;5032581;28;20450;-66
2021/09/17 08:24:45;;;;;;;4.33;1.60;;;;;;;;;;5033178;28;20467;-66
2021/09/17 08:27:14;;;;;;;5.00;2.20;;;;;;;;;;5032539;28;20947;-66
2021/09/17 08:29:41;;;;;;;5.00;2.57;;;;;;;;;;5032670;28;20992;-64
2021/09/17 08:32:09;;;;;;;1.33;1.03;;;;;;;;;;5032664;28;20477;-65
2021/09/17 08:34:36;;;;;;;2.80;1.23;;;;;;;;;;5033246;28;20893;-66
2021/09/17 08:37:07;;;;;;;7.23;1.57;;;;;;;;;;5032680;28;20580;-65
2021/09/17 08:39:36;;;;;;;1.93;1.37;;;;;;;;;;5032743;28;20427;-66
2021/09/17 08:42:04;;;;;;;2.90;1.20;;;;;;;;;;5032955;28;20881;-67
2021/09/17 08:44:33;;;;;;;3.13;1.40;;;;;;;;;;5032602;28;20500;-65
2021/09/17 08:47:00;;;;;;;2.60;1.20;;;;;;;;;;5032912;28;20581;-66
2021/09/17 08:49:28;;;;;;;1.87;1.47;;;;;;;;;;5032760;28;20877;-66
2021/09/17 08:51:55;;;;;;;1.80;1.10;;;;;;;;;;5032947;28;20445;-67
2021/09/17 08:54:22;;;;;;;5.27;1.23;;;;;;;;;;5034585;28;20497;-66
2021/09/17 08:56:50;;;;;;;2.60;1.30;;;;;;;;;;5036208;28;20431;-66
2021/09/17 08:59:17;;;;;;;3.40;1.73;;;;;;;;;;5036609;28;20443;-66
2021/09/17 09:01:46;;;;;;;1.90;1.60;;;;;;;;;;5036030;28;20507;-65
2021/09/17 09:04:14;;;;;;;3.07;1.70;;;;;;;;;;5036553;28;20952;-64
2021/09/17 09:06:42;;;;;;;3.60;1.50;;;;;;;;;;5037140;28;20502;-67
2021/09/17 09:09:17;;;;;;;2.30;1.57;;;;;;;;;;5036892;28;20482;-64
2021/09/17 09:11:46;;;;;;;2.37;2.10;;;;;;;;;;5036492;28;20838;-63
2021/09/17 09:14:14;;;;;;;3.90;1.30;;;;;;;;;;5035949;28;20511;-66
2021/09/17 09:16:42;;;;;;;2.33;1.50;;;;;;;;;;5035907;28;20864;-65
2021/09/17 09:19:21;;;;;;;3.80;1.97;;;;;;;;;;5036387;28;20517;-64
2021/09/17 09:21:49;;;;;;;2.63;1.53;;;;;;;;;;5036046;28;20449;-63
2021/09/17 09:24:18;;;;;;;2.57;1.90;;;;;;;;;;5035634;28;20457;-65
2021/09/17 09:26:46;;;;;;;2.13;1.60;;;;;;;;;;5035657;28;20951;-63
2021/09/17 09:29:25;;;;;;;3.17;1.60;;;;;;;;;;5035956;28;20534;-66
2021/09/17 09:31:53;;;;;;;2.37;1.70;;;;;;;;;;5035693;28;20500;-66
2021/09/17 09:34:24;;;;;;;2.37;1.90;;;;;;;;;;5035307;28;20445;-65
2021/09/17 09:37:03;;;;;;;4.77;1.93;;;;;;;;;;5035641;28;20431;-65
2021/09/17 09:39:39;;;;;;;2.97;2.00;;;;;;;;;;5035562;28;20431;-64
2021/09/17 09:42:08;;;;;;;6.30;2.13;;;;;;;;;;5035530;28;20461;-64
2021/09/17 09:44:35;;;;;;;2.33;1.90;;;;;;;;;;5034999;28;20534;-66
2021/09/17 09:47:03;;;;;;;5.13;1.67;;;;;;;;;;5035106;28;20943;-65
2021/09/17 09:49:31;;;;;;;2.57;1.47;;;;;;;;;;5035083;28;20493;-65
2021/09/17 09:51:59;;;;;;;3.10;1.53;;;;;;;;;;5035704;28;20450;-65
2021/09/17 09:54:28;;;;;;;4.30;1.77;;;;;;;;;;5034918;28;20484;-66
2021/09/17 09:56:55;;;;;;;1.97;1.53;;;;;;;;;;5035341;28;20434;-64
2021/09/17 09:59:24;;;;;;;3.83;1.50;;;;;;;;;;5034923;28;20453;-66
2021/09/17 10:01:52;;;;;;;2.73;1.70;;;;;;;;;;5034834;28;20450;-66
2021/09/17 10:04:21;;;;;;;1.80;1.50;;;;;;;;;;5034684;28;20453;-67
2021/09/17 10:06:58;;;;;;;1.97;1.57;;;;;;;;;;5034657;28;20444;-64
2021/09/17 10:09:25;;;;;;;2.27;1.67;;;;;;;;;;5034636;28;20586;-64
2021/09/17 10:11:53;;;;;;;2.20;1.80;;;;;;;;;;5034884;28;20446;-64
2021/09/17 10:14:20;;;;;;;1.63;1.40;;;;;;;;;;5034937;28;20451;-63
2021/09/17 10:16:49;;;;;;;3.80;1.80;;;;;;;;;;5034907;28;20452;-68
2021/09/17 10:19:20;;;;;;;2.43;1.77;;;;;;;;;;5035045;28;20456;-63
2021/09/17 10:21:55;;;;;;;3.00;1.97;;;;;;;;;;5034642;28;20513;-63
2021/09/17 10:24:37;;;;;;;2.47;1.63;;;;;;;;;;5034350;28;20512;-64
2021/09/17 10:27:06;;;;;;;2.73;1.50;;;;;;;;;;5034712;28;20475;-66
2021/09/17 10:29:34;;;;;;;2.50;1.50;;;;;;;;;;5034206;28;20487;-65
2021/09/17 10:32:01;;;;;;;2.77;1.47;;;;;;;;;;5034127;28;20928;-64
2021/09/17 10:34:29;;;;;;;3.00;1.57;;;;;;;;;;5033918;28;20503;-65
2021/09/17 10:36:58;;;;;;;2.93;1.60;;;;;;;;;;5034381;28;20447;-65
2021/09/17 10:39:25;;;;;;;2.77;1.73;;;;;;;;;;5034310;28;20501;-65
2021/09/17 10:42:16;;;;;;;2.50;1.50;;;;;;;;;;5034223;28;20499;-65
2021/09/17 10:45:07;;;;;;;2.00;1.80;;;;;;;;;;5019305;28;20980;-65
2021/09/17 10:47:54;;;;;;;3.50;1.57;;;;;;;;;;5019477;28;20527;-65
2021/09/17 10:50:23;;;;;;;4.13;1.40;;;;;;;;;;5034048;28;20530;-66
2021/09/17 10:52:52;;;;;;;3.47;1.70;;;;;;;;;;5034301;28;20460;-64
2021/09/17 10:55:37;;;;;;;3.60;1.70;;;;;;;;;;5034776;28;20920;-62
2021/09/17 10:58:24;;;;;;;2.17;1.60;;;;;;;;;;5033610;28;20442;-64
2021/09/17 11:00:54;;;;;;;2.60;1.70;;;;;;;;;;5034376;28;20448;-64
2021/09/17 11:03:49;;;;;;;2.17;1.53;;;;;;;;;;5034465;28;20441;-63
2021/09/17 11:06:29;;;;;;;4.83;1.70;;;;;;;;;;4998738;28;20564;-63
2021/09/17 11:09:00;;;;;;;2.20;1.30;;;;;;;;;;5034376;28;20823;-64
2021/09/17 11:11:27;;;;;;;3.20;1.83;;;;;;;;;;5033646;28;20436;-64
2021/09/17 11:13:56;;;;;;;2.27;1.57;;;;;;;;;;5033655;28;20450;-64
2021/09/17 11:16:24;;;;;;;1.30;1.20;;;;;;;;;;5032711;28;20480;-64
2021/09/17 11:18:55;;;;;;;2.93;1.77;;;;;;;;;;5033338;28;20442;-63
2021/09/17 11:21:22;;;;;;;3.97;1.70;;;;;;;;;;5034458;28;20483;-64
2021/09/17 11:23:51;;;;;;;2.93;1.50;;;;;;;;;;5033751;28;20813;-64
2021/09/17 11:26:21;;;;;;;2.30;1.80;;;;;;;;;;5033195;28;20983;-64
2021/09/17 11:29:02;;;;;;;2.37;1.60;;;;;;;;;;5033144;28;20990;-64
2021/09/17 11:31:32;;;;;;;2.83;1.80;;;;;;;;;;5033113;28;20507;-64
2021/09/17 11:33:59;;;;;;;3.03;1.63;;;;;;;;;;5033220;28;20503;-63
2021/09/17 11:36:41;;;;;;;2.70;1.63;;;;;;;;;;5033202;28;20558;-64
2021/09/17 11:39:19;;;;;;;3.13;1.60;;;;;;;;;;5033155;28;20452;-64
2021/09/17 11:41:49;;;;;;;1.53;1.43;;;;;;;;;;5032933;28;20428;-64
2021/09/17 11:44:32;;;;;;;2.67;1.87;;;;;;;;;;5032965;28;20462;-67
2021/09/17 11:47:00;;;;;;;2.10;1.70;;;;;;;;;;5032637;28;20445;-65
2021/09/17 11:49:27;;;;;;;2.77;1.70;;;;;;;;;;5033302;28;20533;-65
2021/09/17 11:51:58;;;;;;;3.87;1.80;;;;;;;;;;5033289;28;20502;-64
2021/09/17 11:54:25;;;;;;;1.77;1.47;;;;;;;;;;5032855;28;21005;-64
2021/09/17 11:57:04;;;;;;;2.80;1.40;;;;;;;;;;5033160;28;20500;-65
2021/09/17 11:59:32;;;;;;;2.20;1.63;;;;;;;;;;5033057;28;20440;-65
2021/09/17 12:02:11;;;;;;;2.70;1.50;;;;;;;;;;5032671;28;20494;-65
2021/09/17 12:04:39;;;;;;;2.83;1.70;;;;;;;;;;5032616;28;20458;-64
2021/09/17 12:07:06;;;;;;;3.70;2.03;;;;;;;;;;5032981;28;20443;-66
2021/09/17 12:09:33;;;;;;;3.33;2.00;;;;;;;;;;5032625;28;21065;-67
2021/09/17 12:12:01;;;;;;;3.43;2.20;;;;;;;;;;5032713;28;20500;-66
2021/09/17 12:14:29;;;;;;;4.77;2.60;;;;;;;;;;5033761;28;20506;-65
2021/09/17 12:17:02;;;;;;;2.30;1.60;;;;;;;;;;5033267;28;21000;-63
2021/09/17 12:19:30;;;;;;;2.07;1.87;;;;;;;;;;5033023;28;20513;-65
2021/09/17 12:22:01;;;;;;;4.80;2.43;;;;;;;;;;5032845;28;20584;-65
2021/09/17 12:24:29;;;;;;;4.93;2.27;;;;;;;;;;5033216;28;20509;-64
2021/09/17 12:26:57;;;;;;;4.77;2.70;;;;;;;;;;5032734;28;20503;-65
2021/09/17 12:29:25;;;;;;;4.37;2.53;;;;;;;;;;5034852;28;20533;-65
2021/09/17 12:31:53;;;;;;;3.40;2.80;;;;;;;;;;5036600;28;20455;-64
2021/09/17 12:34:22;;;;;;;5.20;2.70;;;;;;;;;;5036118;28;20874;-65
2021/09/17 12:36:51;;;;;;;8.50;3.13;;;;;;;;;;5036693;28;20452;-66
2021/09/17 12:39:21;;;;;;;3.30;2.77;;;;;;;;;;5036651;28;20501;-64
2021/09/17 12:41:50;;;;;;;5.57;2.53;;;;;;;;;;5036263;28;20495;-64
2021/09/17 12:44:18;;;;;;;3.37;2.50;;;;;;;;;;5036753;28;20451;-64
2021/09/17 12:46:46;;;;;;;3.13;2.50;;;;;;;;;;5036565;28;20463;-65
2021/09/17 12:49:20;;;;;;;3.70;3.20;;;;;;;;;;5035906;28;20475;-65
2021/09/17 12:51:55;;;;;;;3.40;2.70;;;;;;;;;;5036173;28;20461;-66
2021/09/17 12:54:22;;;;;;;3.90;2.97;;;;;;;;;;5036897;28;20439;-66
2021/09/17 12:56:50;;;;;;;2.97;1.93;;;;;;;;;;5036134;28;20519;-66
2021/09/17 12:59:17;;;;;;;2.87;1.50;;;;;;;;;;5036282;28;20446;-67
2021/09/17 13:01:46;;;;;;;1.73;0.97;;;;;;;;;;5035992;28;20847;-64
2021/09/17 13:04:15;;;;;;;1.53;1.00;;;;;;;;;;5035202;28;20458;-64
2021/09/17 13:06:46;;;;;;;2.27;1.10;;;;;;;;;;5035955;28;20479;-65
2021/09/17 13:09:13;;;;;;;4.00;1.17;;;;;;;;;;5036428;28;20489;-65
2021/09/17 13:11:40;;;;;;;4.20;0.93;;;;;;;;;;5036251;28;20491;-64
2021/09/17 13:14:08;;;;;;;4.80;1.30;;;;;;;;;;5035944;28;20505;-67
2021/09/17 13:16:35;;;;;;;3.00;1.30;;;;;;;;;;5035477;28;20471;-66
2021/09/17 13:19:02;;;;;;;1.97;1.30;;;;;;;;;;5036037;28;20451;-64
2021/09/17 13:21:29;;;;;;;2.40;1.60;;;;;;;;;;5035776;28;20854;-65
2021/09/17 13:23:58;;;;;;;7.00;1.47;;;;;;;;;;5035453;28;20529;-65
2021/09/17 13:26:25;;;;;;;3.10;1.00;;;;;;;;;;5035608;28;21047;-65
2021/09/17 13:28:52;;;;;;;3.10;1.60;;;;;;;;;;5035293;28;20449;-64
2021/09/17 13:31:19;;;;;;;6.13;2.03;;;;;;;;;;5035691;28;20483;-65
2021/09/17 13:33:47;;;;;;;3.83;1.70;;;;;;;;;;5035136;28;20937;-65
2021/09/17 13:36:14;;;;;;;2.13;1.50;;;;;;;;;;5035276;28;20467;-65
2021/09/17 13:38:41;;;;;;;2.77;1.40;;;;;;;;;;5035315;28;20605;-65
2021/09/17 13:41:10;;;;;;;2.70;1.90;;;;;;;;;;5034674;28;20938;-65
2021/09/17 13:43:37;;;;;;;2.70;1.40;;;;;;;;;;5035282;28;20842;-65
2021/09/17 13:46:04;;;;;;;2.50;1.53;;;;;;;;;;5035026;28;20470;-65
2021/09/17 13:48:31;;;;;;;3.30;1.53;;;;;;;;;;5035018;28;20446;-66
2021/09/17 13:50:59;;;;;;;1.67;1.10;;;;;;;;;;5035217;28;20532;-66
2021/09/17 13:53:26;;;;;;;2.53;1.57;;;;;;;;;;5035138;28;20454;-65
2021/09/17 13:55:53;;;;;;;1.77;1.10;;;;;;;;;;5034505;28;20535;-65
2021/09/17 13:58:24;;;;;;;2.93;1.53;;;;;;;;;;5034470;28;20452;-65
2021/09/17 14:00:51;;;;;;;3.40;1.80;;;;;;;;;;5034706;28;20432;-64
2021/09/17 14:03:19;;;;;;;2.70;1.73;;;;;;;;;;5034493;28;20496;-64
2021/09/17 14:05:46;;;;;;;2.50;1.20;;;;;;;;;;5034949;28;20802;-65
2021/09/17 14:08:14;;;;;;;1.73;1.40;;;;;;;;;;5034681;28;20447;-65
2021/09/17 14:10:41;;;;;;;5.50;1.57;;;;;;;;;;5034169;28;20529;-65
2021/09/17 14:13:09;;;;;;;1.60;1.17;;;;;;;;;;5034468;28;20542;-65
2021/09/17 14:15:37;;;;;;;2.77;1.20;;;;;;;;;;5034168;28;20476;-65
2021/09/17 14:18:04;;;;;;;2.90;1.40;;;;;;;;;;5034602;28;20450;-65
2021/09/17 14:20:32;;;;;;;3.07;1.37;;;;;;;;;;5034378;28;20439;-65
2021/09/17 14:22:59;;;;;;;4.90;1.80;;;;;;;;;;5034651;28;20507;-65
2021/09/17 14:25:26;;;;;;;4.53;2.10;;;;;;;;;;5034313;28;20982;-63
2021/09/17 14:27:54;;;;;;;4.83;2.37;;;;;;;;;;5034699;28;20452;-65
2021/09/17 14:30:21;;;;;;;6.03;2.87;;;;;;;;;;5034043;28;20474;-64
2021/09/17 14:32:56;;;;;;;5.17;2.00;;;;;;;;;;5034325;28;20451;-65
2021/09/17 14:35:23;;;;;;;3.73;1.50;;;;;;;;;;5034175;28;20878;-64
2021/09/17 14:37:50;;;;;;;2.83;1.90;;;;;;;;;;5034063;28;20506;-66
2021/09/17 14:40:18;;;;;;;2.20;1.67;;;;;;;;;;5034419;28;20498;-65
2021/09/17 14:42:45;;;;;;;4.87;2.00;;;;;;;;;;5034003;28;20924;-64